createdAt,value
2022-11-13T00:00:22.200Z,12.32
2022-11-13T00:03:43.402Z,12.13
2022-11-13T00:07:04.119Z,13.30
2022-11-13T00:10:25.043Z,12.38
2022-11-13T00:13:47.181Z,12.45
2022-11-13T00:17:07.856Z,11.93
2022-11-13T00:20:28.351Z,11.35
2022-11-13T00:23:49.451Z,10.75
2022-11-13T00:27:10.191Z,10.95
2022-11-13T00:30:30.913Z,11.60
2022-11-13T00:34:13.906Z,11.95
2022-11-13T00:37:33.461Z,10.90
2022-11-13T00:40:54.165Z,10.70
2022-11-13T00:44:14.955Z,10.32
2022-11-13T00:47:35.822Z,11.15
2022-11-13T00:50:56.473Z,11.25
2022-11-13T00:54:17.288Z,10.05
2022-11-13T00:57:38.291Z,10.57
2022-11-13T01:01:15.757Z,10.23
2022-11-13T01:04:36.573Z,9.93
2022-11-13T01:07:57.890Z,9.70
2022-11-13T01:11:21.937Z,9.63
2022-11-13T01:14:42.739Z,9.80
2022-11-13T01:18:03.650Z,9.40
2022-11-13T01:21:27.570Z,9.52
2022-11-13T01:24:48.692Z,9.25
2022-11-13T01:28:09.778Z,9.50
2022-11-13T01:31:31.471Z,9.40
2022-11-13T01:34:52.510Z,8.63
2022-11-13T01:38:13.038Z,9.25
2022-11-13T01:41:34.689Z,8.13
2022-11-13T01:45:01.040Z,8.18
2022-11-13T01:48:22.655Z,6.63
2022-11-13T01:51:55.952Z,7.07
2022-11-13T01:55:18.903Z,6.22
2022-11-13T01:58:41.223Z,6.50
2022-11-13T02:02:02.558Z,6.43
2022-11-13T02:05:23.260Z,6.43
2022-11-13T02:08:44.688Z,6.35
2022-11-13T02:12:08.947Z,5.70
2022-11-13T02:15:33.212Z,5.88
2022-11-13T02:18:54.464Z,5.20
2022-11-13T02:22:59.707Z,4.78
2022-11-13T02:26:23.969Z,4.30
2022-11-13T02:29:44.963Z,4.18
2022-11-13T02:33:40.802Z,3.95
2022-11-13T02:37:01.521Z,4.30
2022-11-13T02:40:23.759Z,3.70
2022-11-13T02:43:44.366Z,3.67
2022-11-13T02:47:05.327Z,3.20
2022-11-13T02:50:27.013Z,3.38
2022-11-13T02:53:47.988Z,3.28
2022-11-13T02:57:08.893Z,3.67
2022-11-13T03:00:30.174Z,3.47
2022-11-13T03:03:58.635Z,3.08
2022-11-13T03:07:20.158Z,2.92
2022-11-13T03:10:40.864Z,2.45
2022-11-13T03:14:01.930Z,2.63
2022-11-13T03:17:22.843Z,2.42
2022-11-13T03:20:44.290Z,2.75
2022-11-13T03:24:05.280Z,2.53
2022-11-13T03:27:26.357Z,2.58
2022-11-13T03:30:48.032Z,2.15
2022-11-13T03:34:09.531Z,2.30
2022-11-13T03:37:30.118Z,2.35
2022-11-13T03:40:51.394Z,2.15
2022-11-13T03:44:12.936Z,2.20
2022-11-13T03:47:33.925Z,2.10
2022-11-13T03:50:55.952Z,2.17
2022-11-13T03:54:16.421Z,2.30
2022-11-13T03:57:36.905Z,2.10
2022-11-13T04:00:58.184Z,2.13
2022-11-13T04:04:19.227Z,2.42
2022-11-13T04:07:39.897Z,2.22
2022-11-13T04:11:11.255Z,2.20
2022-11-13T04:14:32.200Z,2.22
2022-11-13T04:17:53.183Z,2.20
2022-11-13T04:21:13.707Z,1.92
2022-11-13T04:24:34.138Z,1.90
2022-11-13T04:27:54.622Z,2.30
2022-11-13T04:31:15.780Z,1.92
2022-11-13T04:34:37.090Z,1.92
2022-11-13T04:37:58.260Z,2.05
2022-11-13T04:41:37.858Z,2.78
2022-11-13T04:44:58.611Z,2.30
2022-11-13T04:48:19.811Z,1.95
2022-11-13T04:51:40.818Z,2.38
2022-11-13T04:55:01.804Z,2.17
2022-11-13T04:58:22.513Z,2.40
2022-11-13T05:01:43.622Z,1.95
2022-11-13T05:05:05.595Z,2.08
2022-11-13T05:08:26.901Z,2.00
2022-11-13T05:11:47.949Z,2.05
2022-11-13T05:15:09.111Z,1.73
2022-11-13T05:18:31.127Z,2.17
2022-11-13T05:21:52.340Z,1.95
2022-11-13T05:25:13.208Z,2.63
2022-11-13T05:28:34.074Z,2.38
2022-11-13T05:31:54.546Z,2.55
2022-11-13T05:35:16.031Z,2.17
2022-11-13T05:38:37.208Z,2.38
2022-11-13T05:41:58.224Z,2.13
2022-11-13T05:45:19.245Z,1.98
2022-11-13T05:48:40.591Z,2.13
2022-11-13T05:52:01.489Z,2.28
2022-11-13T05:55:23.526Z,2.88
2022-11-13T05:58:44.912Z,2.60
2022-11-13T06:02:06.005Z,2.33
2022-11-13T06:05:26.694Z,2.20
2022-11-13T06:08:48.713Z,2.15
2022-11-13T06:12:09.557Z,2.42
2022-11-13T06:15:30.203Z,2.20
2022-11-13T06:18:54.487Z,2.63
2022-11-13T06:22:14.962Z,2.50
2022-11-13T06:25:35.374Z,2.78
2022-11-13T06:28:56.313Z,2.33
2022-11-13T06:32:16.751Z,2.00
2022-11-13T06:35:38.427Z,2.47
2022-11-13T06:38:59.862Z,2.35
2022-11-13T06:42:20.705Z,2.50
2022-11-13T06:45:41.558Z,2.40
2022-11-13T06:49:02.488Z,2.50
2022-11-13T06:52:23.224Z,2.35
2022-11-13T06:55:45.731Z,2.50
2022-11-13T06:59:08.565Z,1.98
2022-11-13T07:02:29.572Z,3.08
2022-11-13T07:05:51.325Z,2.55
2022-11-13T07:09:12.193Z,2.65
2022-11-13T07:12:32.654Z,2.65
2022-11-13T07:15:53.420Z,2.50
2022-11-13T07:19:14.152Z,2.75
2022-11-13T07:22:34.646Z,2.47
2022-11-13T07:25:55.841Z,2.47
2022-11-13T07:29:16.363Z,2.60
2022-11-13T07:32:37.425Z,2.60
2022-11-13T07:35:58.440Z,2.40
2022-11-13T07:39:18.951Z,2.35
2022-11-13T07:42:40.300Z,2.50
2022-11-13T07:46:01.972Z,2.42
2022-11-13T07:49:22.440Z,2.40
2022-11-13T07:52:43.445Z,2.80
2022-11-13T07:56:04.205Z,2.70
2022-11-13T07:59:24.954Z,2.65
2022-11-13T08:02:47.882Z,2.75
2022-11-13T08:06:08.928Z,2.65
2022-11-13T08:09:29.361Z,2.58
2022-11-13T08:12:57.337Z,2.65
2022-11-13T08:16:18.236Z,2.78
2022-11-13T08:19:39.159Z,2.78
2022-11-13T08:23:01.235Z,2.58
2022-11-13T08:26:21.948Z,2.40
2022-11-13T08:29:42.940Z,2.78
2022-11-13T08:33:04.193Z,2.58
2022-11-13T08:36:24.964Z,2.35
2022-11-13T08:39:45.482Z,2.40
2022-11-13T08:43:05.942Z,2.38
2022-11-13T08:46:26.786Z,2.05
2022-11-13T08:49:47.534Z,2.20
2022-11-13T08:53:08.759Z,2.75
2022-11-13T08:56:29.404Z,2.58
2022-11-13T08:59:49.857Z,2.38
2022-11-13T09:03:12.461Z,2.70
2022-11-13T09:06:34.282Z,2.55
2022-11-13T09:09:54.847Z,2.17
2022-11-13T09:13:15.318Z,2.72
2022-11-13T09:16:36.078Z,2.63
2022-11-13T09:20:03.519Z,2.70
2022-11-13T09:23:24.965Z,2.97
2022-11-13T09:26:45.497Z,2.30
2022-11-13T09:30:06.508Z,3.10
2022-11-13T09:33:27.355Z,2.83
2022-11-13T09:36:47.761Z,3.13
2022-11-13T09:40:18.001Z,3.40
2022-11-13T09:43:44.930Z,3.03
2022-11-13T09:47:19.767Z,2.53
2022-11-13T09:50:41.294Z,2.83
2022-11-13T09:54:06.567Z,3.58
2022-11-13T09:57:48.703Z,2.97
2022-11-13T10:01:16.571Z,3.28
2022-11-13T10:04:58.001Z,3.15
2022-11-13T10:08:58.340Z,3.08
2022-11-13T10:15:42.896Z,3.67
2022-11-13T10:19:23.756Z,2.97
2022-11-13T10:23:26.640Z,3.58
2022-11-13T10:26:47.481Z,3.10
2022-11-13T10:30:18.999Z,3.35
2022-11-13T10:33:40.091Z,3.05
2022-11-13T10:37:21.722Z,3.35
2022-11-13T10:40:42.749Z,3.33
2022-11-13T10:44:35.580Z,3.60
2022-11-13T10:48:04.225Z,3.00
2022-11-13T10:51:31.615Z,2.83
2022-11-13T10:55:21.470Z,3.63
2022-11-13T10:58:42.586Z,3.60
2022-11-13T11:02:17.968Z,2.58
2022-11-13T11:05:38.772Z,3.42
2022-11-13T11:09:25.728Z,2.80
2022-11-13T11:12:53.471Z,4.00
2022-11-13T11:16:23.927Z,3.58
2022-11-13T11:19:49.717Z,3.53
2022-11-13T11:23:25.405Z,4.00
2022-11-13T11:27:12.591Z,3.50
2022-11-13T11:30:42.643Z,3.90
2022-11-13T11:34:26.284Z,4.43
2022-11-13T11:37:52.100Z,3.90
2022-11-13T11:41:16.860Z,4.38
2022-11-13T11:45:01.590Z,4.50
2022-11-13T11:48:27.183Z,4.43
2022-11-13T11:52:13.884Z,4.53
2022-11-13T11:56:01.401Z,4.63
2022-11-13T11:59:55.946Z,4.25
2022-11-13T12:03:45.556Z,4.80
2022-11-13T12:07:15.106Z,4.43
2022-11-13T12:11:27.602Z,4.95
2022-11-13T12:15:24.108Z,4.78
2022-11-13T12:19:15.914Z,4.10
2022-11-13T12:22:43.862Z,4.38
2022-11-13T12:26:26.858Z,4.60
2022-11-13T12:29:47.389Z,4.30
2022-11-13T12:33:29.066Z,4.88
2022-11-13T12:36:50.516Z,4.63
2022-11-13T12:40:44.275Z,4.93
2022-11-13T12:44:28.947Z,4.78
2022-11-13T12:47:52.215Z,4.78
2022-11-13T12:51:15.345Z,5.28
2022-11-13T12:54:37.814Z,5.30
2022-11-13T12:58:26.380Z,5.28
2022-11-13T13:02:07.801Z,5.00
2022-11-13T13:06:00.959Z,4.78
2022-11-13T13:09:45.109Z,5.10
2022-11-13T13:13:33.141Z,4.30
2022-11-13T13:17:06.139Z,5.18
2022-11-13T13:20:41.988Z,5.20
2022-11-13T13:24:27.141Z,4.53
2022-11-13T13:28:03.184Z,5.25
2022-11-13T13:31:37.589Z,5.00
2022-11-13T13:35:05.665Z,4.88
2022-11-13T13:38:32.359Z,4.47
2022-11-13T13:42:11.089Z,5.78
2022-11-13T13:45:58.298Z,5.50
2022-11-13T13:49:22.623Z,5.25
2022-11-13T13:52:44.938Z,5.53
2022-11-13T13:56:11.580Z,4.30
2022-11-13T13:59:36.057Z,5.80
2022-11-13T14:02:56.671Z,5.40
2022-11-13T14:06:23.015Z,6.13
2022-11-13T14:09:44.038Z,5.60
2022-11-13T14:13:04.833Z,5.65
2022-11-13T14:16:25.539Z,6.03
2022-11-13T14:19:51.233Z,6.22
2022-11-13T14:23:15.337Z,6.35
2022-11-13T14:26:36.288Z,6.60
2022-11-13T14:30:02.268Z,6.43
2022-11-13T14:33:41.601Z,6.07
2022-11-13T14:37:29.424Z,6.80
2022-11-13T14:40:50.602Z,6.15
2022-11-13T14:44:12.511Z,7.07
2022-11-13T14:47:37.693Z,5.88
2022-11-13T14:51:07.162Z,6.60
2022-11-13T14:58:28.204Z,6.35
2022-11-13T15:01:56.363Z,6.60
2022-11-13T15:05:17.785Z,6.93
2022-11-13T15:08:39.099Z,6.50
2022-11-13T15:12:00.026Z,6.18
2022-11-13T15:15:27.150Z,5.85
2022-11-13T15:19:41.480Z,7.50
2022-11-13T15:23:01.990Z,5.80
2022-11-13T15:26:22.604Z,7.22
2022-11-13T15:29:44.732Z,6.90
2022-11-13T15:33:14.488Z,7.35
2022-11-13T15:39:56.054Z,7.68
2022-11-13T15:43:22.617Z,7.72
2022-11-13T15:46:43.072Z,8.20
2022-11-13T15:50:14.507Z,7.50
2022-11-13T15:53:35.850Z,8.48
2022-11-13T15:56:56.437Z,7.68
2022-11-13T16:00:21.608Z,7.55
2022-11-13T16:03:42.289Z,8.52
2022-11-13T16:07:04.481Z,8.43
2022-11-13T16:10:25.573Z,8.20
2022-11-13T16:13:46.890Z,8.15
2022-11-13T16:17:16.777Z,9.45
2022-11-13T16:20:37.506Z,8.90
2022-11-13T16:23:58.442Z,7.82
2022-11-13T16:27:30.412Z,9.50
2022-11-13T16:30:51.282Z,9.88
2022-11-13T16:34:12.173Z,8.60
2022-11-13T16:37:32.909Z,9.48
2022-11-13T16:40:53.353Z,7.97
2022-11-13T16:44:13.660Z,8.88
2022-11-13T16:47:34.770Z,8.52
2022-11-13T16:50:55.257Z,8.95
2022-11-13T16:54:16.156Z,9.30
2022-11-13T16:57:38.073Z,10.05
2022-11-13T17:01:00.334Z,9.25
2022-11-13T17:04:21.765Z,9.15
2022-11-13T17:07:42.859Z,9.48
2022-11-13T17:11:03.884Z,9.95
2022-11-13T17:14:24.460Z,10.00
2022-11-13T17:17:45.525Z,10.35
2022-11-13T17:21:06.724Z,9.05
2022-11-13T17:24:27.484Z,8.82
2022-11-13T17:27:48.409Z,9.60
2022-11-13T17:31:12.778Z,10.13
2022-11-13T17:34:33.812Z,9.82
2022-11-13T17:37:54.557Z,8.73
2022-11-13T17:41:16.133Z,9.07
2022-11-13T17:44:36.841Z,9.23
2022-11-13T17:47:58.303Z,9.07
2022-11-13T17:51:18.763Z,9.15
2022-11-13T17:54:39.191Z,10.38
2022-11-13T17:58:02.622Z,9.77
2022-11-13T18:01:23.664Z,11.05
2022-11-13T18:04:44.408Z,9.95
2022-11-13T18:08:06.202Z,11.65
2022-11-13T18:11:28.715Z,10.73
2022-11-13T18:14:52.601Z,10.93
2022-11-13T18:18:13.307Z,12.00
2022-11-13T18:21:35.877Z,11.35
2022-11-13T18:24:57.038Z,12.15
2022-11-13T18:28:17.942Z,11.73
2022-11-13T18:31:38.474Z,11.55
2022-11-13T18:34:59.205Z,10.63
2022-11-13T18:38:20.168Z,12.13
2022-11-13T18:41:40.766Z,11.85
2022-11-13T18:45:05.678Z,12.82
2022-11-13T18:48:31.175Z,11.35
2022-11-13T18:51:51.627Z,11.63
2022-11-13T18:55:12.066Z,10.63
2022-11-13T18:58:35.387Z,11.52
2022-11-13T19:01:56.424Z,12.35
2022-11-13T19:05:17.092Z,12.48
2022-11-13T19:08:40.843Z,12.43
2022-11-13T19:12:01.837Z,12.18
2022-11-13T19:15:22.611Z,11.27
2022-11-13T19:18:44.830Z,10.23
2022-11-13T19:22:05.748Z,11.35
2022-11-13T19:25:26.942Z,13.88
2022-11-13T19:28:49.361Z,12.00
2022-11-13T19:32:09.951Z,12.90
2022-11-13T19:35:31.024Z,12.52
2022-11-13T19:38:52.839Z,13.80
2022-11-13T19:42:13.434Z,13.63
2022-11-13T19:45:36.031Z,13.75
2022-11-13T19:49:00.034Z,14.65
2022-11-13T19:52:20.764Z,14.68
2022-11-13T19:55:41.897Z,13.45
2022-11-13T19:59:02.699Z,14.43
2022-11-13T20:02:24.366Z,13.95
2022-11-13T20:05:45.598Z,13.07
2022-11-13T20:09:06.815Z,13.68
2022-11-13T20:12:29.726Z,13.90
2022-11-13T20:15:54.825Z,13.93
2022-11-13T20:19:15.755Z,13.02
2022-11-13T20:22:36.441Z,13.52
2022-11-13T20:25:59.986Z,13.57
2022-11-13T20:29:20.618Z,13.98
2022-11-13T20:32:41.569Z,11.95
2022-11-13T20:36:03.963Z,10.55
2022-11-13T20:39:24.744Z,13.23
2022-11-13T20:42:45.191Z,13.85
2022-11-13T20:46:13.925Z,12.82
2022-11-13T20:49:34.417Z,12.80
2022-11-13T20:52:55.169Z,12.18
2022-11-13T20:56:17.453Z,12.77
2022-11-13T20:59:38.086Z,11.93
2022-11-13T21:02:58.733Z,12.32
2022-11-13T21:06:21.750Z,12.43
2022-11-13T21:09:46.002Z,13.40
2022-11-13T21:13:09.130Z,14.02
2022-11-13T21:16:30.811Z,12.50
2022-11-13T21:19:56.383Z,12.18
2022-11-13T21:23:18.100Z,13.10
2022-11-13T21:26:39.091Z,12.93
2022-11-13T21:29:59.656Z,12.15
2022-11-13T21:33:20.575Z,12.05
2022-11-13T21:36:41.014Z,12.20
2022-11-13T21:40:01.511Z,13.00
2022-11-13T21:43:22.119Z,12.32
2022-11-13T21:46:42.555Z,13.13
2022-11-13T21:50:04.198Z,12.52
2022-11-13T21:53:25.026Z,12.38
2022-11-13T21:56:45.642Z,13.45
2022-11-13T22:00:06.818Z,13.35
2022-11-13T22:03:29.205Z,12.57
2022-11-13T22:06:51.220Z,12.38
2022-11-13T22:10:11.927Z,11.20
2022-11-13T22:13:32.882Z,13.07
2022-11-13T22:16:53.870Z,11.82
2022-11-13T22:20:15.189Z,12.32
2022-11-13T22:23:36.512Z,11.80
2022-11-13T22:26:57.550Z,12.18
2022-11-13T22:30:18.338Z,12.23
2022-11-13T22:33:42.387Z,13.38
2022-11-13T22:37:06.082Z,13.15
2022-11-13T22:40:26.605Z,12.95
2022-11-13T22:43:51.107Z,13.10
2022-11-13T22:47:11.550Z,13.57
2022-11-13T22:50:34.483Z,13.27
2022-11-13T22:54:00.440Z,13.25
2022-11-13T22:57:21.020Z,13.48
2022-11-13T23:00:41.639Z,14.35
2022-11-13T23:04:05.450Z,13.90
2022-11-13T23:07:25.949Z,13.50
2022-11-13T23:10:55.208Z,13.07
2022-11-13T23:14:16.062Z,13.67
2022-11-13T23:17:36.872Z,13.30
2022-11-13T23:20:57.582Z,12.27
2022-11-13T23:24:18.276Z,11.00
2022-11-13T23:27:38.781Z,13.80
2022-11-13T23:30:59.258Z,13.32
2022-11-13T23:34:38.354Z,13.63
2022-11-13T23:38:00.798Z,12.45
2022-11-13T23:41:21.847Z,13.40
2022-11-13T23:44:42.992Z,11.88
2022-11-13T23:48:04.330Z,12.70
2022-11-13T23:51:24.651Z,11.57
2022-11-13T23:54:45.184Z,11.95
2022-11-13T23:58:10.024Z,12.25
